Time;durP1;ratioP1;P1;durP2;ratioP2;P2;SDS_P1;SDS_P2;PMS_P1;PMS_P2;Temp;Humidity;BMP_temperature;BMP_pressure;BME280_temperature;BME280_humidity;BME280_pressure;Samples;Min_cycle;Max_cycle;Signal;HPM_P1;HPM_P2
2021/04/15 00:01:07;;;;;;;7.53;5.17;;;0.60;92.30;;;;;;5043780;28;20554;-57
2021/04/15 00:03:33;;;;;;;7.87;5.90;;;0.50;92.20;;;;;;5027214;28;20451;-58
2021/04/15 00:06:01;;;;;;;8.40;6.10;;;0.50;92.20;;;;;;5028049;28;21002;-58
2021/04/15 00:08:27;;;;;;;6.60;5.90;;;0.50;92.40;;;;;;5021900;28;20176;-57
2021/04/15 00:10:55;;;;;;;7.43;5.23;;;0.50;92.60;;;;;;5024886;28;20555;-58
2021/04/15 00:13:23;;;;;;;9.33;5.50;;;0.40;92.40;;;;;;5021587;28;20970;-58
2021/04/15 00:15:49;;;;;;;7.70;5.63;;;0.40;92.30;;;;;;5024794;28;20793;-58
2021/04/15 00:18:16;;;;;;;8.77;5.40;;;0.40;92.50;;;;;;5023450;28;20517;-58
2021/04/15 00:20:44;;;;;;;12.90;5.70;;;0.30;92.60;;;;;;5028688;28;20468;-58
2021/04/15 00:23:09;;;;;;;5.97;5.10;;;0.30;92.80;;;;;;5027603;28;20440;-58
2021/04/15 00:25:35;;;;;;;6.47;5.27;;;0.20;92.90;;;;;;5024332;28;20525;-58
2021/04/15 00:28:01;;;;;;;10.27;5.67;;;0.20;93.00;;;;;;5022856;28;20172;-57
2021/04/15 00:30:27;;;;;;;10.53;5.90;;;0.20;93.10;;;;;;5043847;28;20213;-58
2021/04/15 00:32:53;;;;;;;7.60;5.93;;;0.20;93.30;;;;;;5028552;28;20263;-58
2021/04/15 00:35:20;;;;;;;6.70;6.00;;;0.20;93.40;;;;;;5026351;28;20811;-57
2021/04/15 00:37:46;;;;;;;11.93;5.63;;;0.20;93.70;;;;;;5028189;28;20990;-58
2021/04/15 00:40:13;;;;;;;8.13;5.63;;;0.20;93.80;;;;;;5025800;28;20542;-57
2021/04/15 00:42:39;;;;;;;7.17;5.30;;;0.20;93.90;;;;;;5028179;28;20446;-57
2021/04/15 00:45:13;;;;;;;8.40;5.50;;;0.20;93.90;;;;;;5023335;28;20565;-58
2021/04/15 00:47:42;;;;;;;11.47;5.60;;;0.20;94.00;;;;;;5022339;28;20437;-59
2021/04/15 00:50:50;;;;;;;6.80;5.20;;;0.20;93.80;;;;;;5022722;28;20493;-58
2021/04/15 00:53:21;;;;;;;7.93;6.37;;;0.20;93.70;;;;;;5013529;28;20877;-58
2021/04/15 00:55:48;;;;;;;7.10;5.53;;;0.10;93.60;;;;;;5041447;28;20471;-57
2021/04/15 00:58:15;;;;;;;9.50;5.00;;;0.10;93.60;;;;;;5029090;28;20431;-58
2021/04/15 01:00:44;;;;;;;7.83;5.33;;;0.10;93.50;;;;;;5028086;28;20466;-57
2021/04/15 01:03:10;;;;;;;8.23;5.93;;;0.10;93.30;;;;;;5026538;28;20431;-57
2021/04/15 01:05:39;;;;;;;8.73;5.30;;;0.10;93.30;;;;;;5025127;28;20432;-57
2021/04/15 01:08:05;;;;;;;6.37;4.97;;;0.10;93.30;;;;;;5029424;28;20174;-58
2021/04/15 01:10:35;;;;;;;5.83;5.23;;;0.10;93.30;;;;;;5023455;28;20471;-57
2021/04/15 01:13:09;;;;;;;8.23;5.40;;;0.10;93.40;;;;;;5029425;28;20774;-58
2021/04/15 01:16:15;;;;;;;6.27;4.63;;;0.10;93.50;;;;;;5029426;28;20435;-58
2021/04/15 01:18:58;;;;;;;7.13;5.20;;;0.10;93.40;;;;;;5020326;28;20456;-58
2021/04/15 01:21:57;;;;;;;6.77;5.60;;;0.10;93.40;;;;;;5027551;28;20520;-58
2021/04/15 01:25:02;;;;;;;7.70;5.63;;;0.10;93.50;;;;;;5017282;28;20428;-58
2021/04/15 01:27:43;;;;;;;9.13;5.60;;;0.10;93.90;;;;;;5025397;28;20505;-58
2021/04/15 01:30:09;;;;;;;9.80;5.60;;;0.10;94.20;;;;;;5025909;28;20975;-58
2021/04/15 01:32:52;;;;;;;8.47;5.80;;;0.10;94.50;;;;;;5026043;28;20435;-58
2021/04/15 01:35:29;;;;;;;10.23;6.37;;;0.10;94.70;;;;;;5027015;28;20542;-58
2021/04/15 01:38:07;;;;;;;8.87;6.47;;;0.10;94.80;;;;;;5026151;28;20617;-58
2021/04/15 01:40:58;;;;;;;9.17;5.80;;;0.10;95.00;;;;;;5026916;28;20466;-57
2021/04/15 01:43:48;;;;;;;13.03;7.13;;;0.10;94.90;;;;;;5025704;28;22005;-58
2021/04/15 01:46:16;;;;;;;11.60;7.47;;;0.10;94.90;;;;;;5024935;28;20511;-58
2021/04/15 01:48:50;;;;;;;9.00;6.60;;;0.10;94.90;;;;;;5027422;28;20435;-58
2021/04/15 01:51:18;;;;;;;9.27;6.90;;;0.10;94.90;;;;;;5019946;28;20438;-59
2021/04/15 01:54:09;;;;;;;16.93;6.93;;;0.20;95.00;;;;;;5029375;28;20435;-58
2021/04/15 01:56:42;;;;;;;7.80;6.20;;;0.10;94.80;;;;;;5026630;28;20451;-58
2021/04/15 01:59:13;;;;;;;9.70;5.80;;;0.10;95.20;;;;;;5026068;28;20466;-58
2021/04/15 02:01:43;;;;;;;9.30;6.47;;;0.10;94.90;;;;;;5026269;28;20471;-58
2021/04/15 02:04:19;;;;;;;8.23;5.90;;;0.10;94.80;;;;;;5026246;28;20686;-58
2021/04/15 02:06:56;;;;;;;10.77;6.10;;;0.10;94.70;;;;;;5026498;28;20455;-58
2021/04/15 02:09:22;;;;;;;11.43;5.53;;;0.10;94.70;;;;;;5027028;28;20457;-57
2021/04/15 02:12:10;;;;;;;6.27;5.00;;;0.20;94.80;;;;;;5023445;28;20431;-58
2021/04/15 02:14:41;;;;;;;9.90;6.27;;;0.10;94.50;;;;;;5021832;28;21205;-58
2021/04/15 02:17:10;;;;;;;7.53;5.67;;;0.10;94.60;;;;;;5025060;28;20487;-57
2021/04/15 02:19:50;;;;;;;9.83;6.50;;;0.10;94.70;;;;;;5027094;28;20510;-58
2021/04/15 02:22:28;;;;;;;8.77;5.77;;;0.10;94.80;;;;;;5026192;28;20678;-58
2021/04/15 02:25:14;;;;;;;7.23;5.73;;;0.10;95.10;;;;;;5027471;28;20458;-58
2021/04/15 02:27:57;;;;;;;10.53;6.23;;;0.10;95.20;;;;;;5019110;28;20437;-58
2021/04/15 02:30:42;;;;;;;11.50;6.93;;;0.10;95.30;;;;;;5024712;28;20650;-59
2021/04/15 02:33:19;;;;;;;11.83;5.90;;;0.10;95.40;;;;;;5018479;28;20428;-59
2021/04/15 02:35:52;;;;;;;8.40;5.97;;;0.20;95.40;;;;;;5024243;28;20427;-58
2021/04/15 02:38:23;;;;;;;11.10;7.10;;;0.20;95.40;;;;;;5031434;28;20444;-58
2021/04/15 02:40:54;;;;;;;9.47;6.53;;;0.20;95.60;;;;;;5032079;28;20467;-58
2021/04/15 02:43:42;;;;;;;8.70;5.83;;;0.20;95.50;;;;;;5026481;28;20447;-58
2021/04/15 02:46:19;;;;;;;10.50;6.83;;;0.20;95.20;;;;;;5026273;28;20450;-58
2021/04/15 02:48:48;;;;;;;10.10;6.03;;;0.20;95.20;;;;;;5025915;28;20486;-58
2021/04/15 02:51:24;;;;;;;8.77;6.10;;;0.20;95.30;;;;;;5026213;28;20852;-58
2021/04/15 02:54:15;;;;;;;7.73;6.20;;;0.30;95.20;;;;;;5019830;28;20431;-58
2021/04/15 02:56:57;;;;;;;9.07;6.70;;;0.20;95.20;;;;;;5024657;28;20472;-57
2021/04/15 02:59:28;;;;;;;8.37;6.03;;;0.20;95.40;;;;;;5025238;28;20464;-57
2021/04/15 03:02:00;;;;;;;8.17;5.63;;;0.20;95.70;;;;;;5025110;28;20853;-57
2021/04/15 03:04:26;;;;;;;8.77;6.17;;;0.20;95.80;;;;;;5029677;28;20909;-57
2021/04/15 03:06:55;;;;;;;9.97;6.33;;;0.20;95.70;;;;;;5027423;28;20455;-58
2021/04/15 03:09:22;;;;;;;11.27;6.43;;;0.20;95.50;;;;;;5026655;28;20487;-57
2021/04/15 03:12:05;;;;;;;10.37;6.63;;;0.20;95.40;;;;;;5022680;28;20746;-58
2021/04/15 03:15:08;;;;;;;10.53;5.93;;;0.10;95.30;;;;;;5023325;28;20474;-58
2021/04/15 03:17:37;;;;;;;11.23;6.57;;;0.10;95.30;;;;;;5025589;28;20463;-57
2021/04/15 03:20:20;;;;;;;9.40;6.30;;;0.10;95.30;;;;;;5027373;28;20500;-58
2021/04/15 03:22:55;;;;;;;10.90;6.23;;;0.10;95.40;;;;;;5025126;28;20531;-58
2021/04/15 03:25:21;;;;;;;9.47;7.20;;;0.10;95.50;;;;;;5027051;28;20416;-58
2021/04/15 03:27:53;;;;;;;9.20;6.80;;;0.10;95.70;;;;;;5026080;28;20461;-58
2021/04/15 03:30:31;;;;;;;10.00;6.73;;;0.10;96.00;;;;;;5025711;28;20193;-58
2021/04/15 03:33:15;;;;;;;13.70;6.67;;;0.10;96.10;;;;;;5026663;28;20424;-58
2021/04/15 03:35:46;;;;;;;11.90;6.97;;;0.20;96.20;;;;;;5027415;28;20473;-57
2021/04/15 03:38:22;;;;;;;10.00;7.00;;;0.20;96.10;;;;;;5027499;28;20438;-57
2021/04/15 03:41:03;;;;;;;9.57;6.47;;;0.20;96.20;;;;;;5020982;28;20459;-58
2021/04/15 03:43:32;;;;;;;12.47;7.20;;;0.20;96.20;;;;;;5022596;28;20497;-58
2021/04/15 03:46:10;;;;;;;14.33;7.70;;;0.20;96.10;;;;;;5037031;28;20582;-57
2021/04/15 03:48:53;;;;;;;7.70;6.00;;;0.20;96.20;;;;;;5025320;28;20968;-58
2021/04/15 03:51:25;;;;;;;10.50;6.70;;;0.30;96.00;;;;;;5020911;28;20463;-58
2021/04/15 03:54:04;;;;;;;11.67;6.97;;;0.30;95.90;;;;;;5020010;28;20441;-58
2021/04/15 03:56:40;;;;;;;13.33;6.73;;;0.30;95.70;;;;;;5012624;28;20447;-58
2021/04/15 03:59:15;;;;;;;10.53;6.90;;;0.30;95.50;;;;;;5019799;28;20459;-58
2021/04/15 04:01:49;;;;;;;8.73;6.33;;;0.30;95.50;;;;;;5016038;28;20434;-58
2021/04/15 04:04:14;;;;;;;10.73;7.60;;;0.30;95.50;;;;;;5027138;28;20451;-58
2021/04/15 04:06:43;;;;;;;11.23;7.40;;;0.20;95.50;;;;;;5030025;28;21212;-58
2021/04/15 04:09:17;;;;;;;8.97;7.33;;;0.20;95.60;;;;;;5026520;28;20701;-58
2021/04/15 04:11:46;;;;;;;17.93;8.17;;;0.20;95.60;;;;;;5025651;28;20495;-58
2021/04/15 04:14:41;;;;;;;12.60;8.50;;;0.10;95.70;;;;;;5030423;28;20550;-59
2021/04/15 04:17:17;;;;;;;11.17;7.67;;;0.10;95.80;;;;;;5024484;28;20961;-58
2021/04/15 04:19:52;;;;;;;10.67;7.60;;;0.10;95.80;;;;;;5029026;28;20936;-59
2021/04/15 04:22:40;;;;;;;9.40;6.80;;;0.10;95.70;;;;;;5027731;28;20436;-58
2021/04/15 04:25:38;;;;;;;11.80;7.77;;;0.00;95.50;;;;;;5023844;28;20478;-58
2021/04/15 04:28:16;;;;;;;12.10;7.13;;;0.00;95.50;;;;;;4998631;28;20655;-58
2021/04/15 04:31:05;;;;;;;13.27;8.40;;;0.00;95.60;;;;;;5025536;28;20490;-58
2021/04/15 04:33:51;;;;;;;14.90;8.30;;;0.00;95.60;;;;;;5027703;28;20494;-58
2021/04/15 04:36:20;;;;;;;12.33;8.53;;;0.00;95.60;;;;;;5030225;28;21042;-58
2021/04/15 04:38:46;;;;;;;10.90;8.00;;;0.00;95.60;;;;;;5027257;28;20802;-58
2021/04/15 04:41:50;;;;;;;15.30;8.53;;;-0.10;95.60;;;;;;5023354;28;20497;-59
2021/04/15 04:44:21;;;;;;;11.23;6.63;;;-0.10;95.50;;;;;;4946006;28;20439;-59
2021/04/15 04:46:52;;;;;;;9.93;7.30;;;-0.20;95.50;;;;;;5007819;28;20434;-59
2021/04/15 04:49:31;;;;;;;12.07;7.20;;;-0.20;95.60;;;;;;5019288;28;20516;-60
2021/04/15 04:52:11;;;;;;;15.33;7.23;;;-0.20;95.90;;;;;;5021070;28;20440;-58
2021/04/15 04:54:39;;;;;;;11.60;7.13;;;-0.20;95.80;;;;;;5012791;28;21133;-58
2021/04/15 04:57:17;;;;;;;9.70;6.53;;;-0.20;96.00;;;;;;5022297;28;20536;-59
2021/04/15 04:59:52;;;;;;;11.77;7.93;;;-0.20;96.10;;;;;;5017448;28;21256;-58
2021/04/15 05:02:18;;;;;;;13.87;7.63;;;-0.20;96.20;;;;;;5017247;28;21037;-60
2021/04/15 05:04:44;;;;;;;12.80;8.63;;;-0.20;96.10;;;;;;5026506;28;20428;-62
2021/04/15 05:07:20;;;;;;;11.20;8.30;;;-0.10;96.10;;;;;;5017991;28;20174;-58
2021/04/15 05:09:47;;;;;;;17.67;8.67;;;-0.10;96.10;;;;;;5024802;28;20255;-59
2021/04/15 05:12:28;;;;;;;12.03;8.27;;;-0.10;96.00;;;;;;5025052;28;20458;-60
2021/04/15 05:14:55;;;;;;;14.67;8.47;;;0.00;96.00;;;;;;5028995;28;20439;-60
2021/04/15 05:17:30;;;;;;;12.20;8.90;;;0.00;96.10;;;;;;5025592;28;20799;-60
2021/04/15 05:19:58;;;;;;;15.57;9.70;;;0.00;96.10;;;;;;5029951;28;20464;-60
2021/04/15 05:22:35;;;;;;;12.77;8.73;;;0.10;95.90;;;;;;5028262;28;20729;-59
2021/04/15 05:25:06;;;;;;;12.37;8.03;;;0.10;95.70;;;;;;5023709;28;20443;-59
2021/04/15 05:27:35;;;;;;;17.33;9.07;;;0.20;95.60;;;;;;5017027;28;20915;-60
2021/04/15 05:30:16;;;;;;;14.17;9.07;;;0.20;95.50;;;;;;5016481;28;20941;-60
2021/04/15 05:32:45;;;;;;;15.60;9.83;;;0.30;95.80;;;;;;5012541;28;20502;-60
2021/04/15 05:35:17;;;;;;;20.03;10.30;;;0.40;96.10;;;;;;5025272;28;20485;-61
2021/04/15 05:37:43;;;;;;;19.47;9.40;;;0.50;96.10;;;;;;5021205;28;20430;-60
2021/04/15 05:40:10;;;;;;;14.87;9.13;;;0.60;96.10;;;;;;5012990;28;20498;-59
2021/04/15 05:42:42;;;;;;;15.90;9.90;;;0.70;95.70;;;;;;5018335;28;20444;-60
2021/04/15 05:45:27;;;;;;;16.67;9.63;;;0.90;95.40;;;;;;5017821;28;20527;-60
2021/04/15 05:47:58;;;;;;;20.53;8.87;;;1.00;94.50;;;;;;5037523;28;20431;-59
2021/04/15 05:50:37;;;;;;;15.07;8.90;;;1.20;94.20;;;;;;5019766;28;21153;-59
2021/04/15 05:53:26;;;;;;;20.80;9.10;;;1.30;93.50;;;;;;5022367;28;20975;-59
2021/04/15 05:55:55;;;;;;;17.63;7.77;;;1.50;93.10;;;;;;5014226;28;20536;-59
2021/04/15 05:58:55;;;;;;;11.30;6.60;;;1.60;92.00;;;;;;5014208;28;20838;-59
2021/04/15 06:01:45;;;;;;;12.73;7.30;;;1.70;91.40;;;;;;4995016;28;20523;-60
2021/04/15 06:04:24;;;;;;;12.80;7.47;;;1.70;90.90;;;;;;5033919;28;20445;-59
2021/04/15 06:06:50;;;;;;;8.37;5.87;;;1.70;91.00;;;;;;5023627;28;20447;-60
2021/04/15 06:09:18;;;;;;;9.00;6.20;;;1.80;90.00;;;;;;5020158;28;20822;-65
2021/04/15 06:11:57;;;;;;;9.97;6.20;;;1.80;90.10;;;;;;5017600;28;20505;-59
2021/04/15 06:14:48;;;;;;;10.27;5.60;;;1.90;90.30;;;;;;5016362;28;20441;-60
2021/04/15 06:17:17;;;;;;;13.67;6.73;;;2.10;87.80;;;;;;5018034;28;21058;-60
2021/04/15 06:19:49;;;;;;;13.50;6.73;;;2.10;86.30;;;;;;5016691;28;20480;-60
2021/04/15 06:22:19;;;;;;;9.47;5.70;;;2.20;85.70;;;;;;5019285;28;20445;-60
2021/04/15 06:24:49;;;;;;;10.03;5.30;;;2.30;85.10;;;;;;5030655;28;21354;-61
2021/04/15 06:27:17;;;;;;;13.70;6.07;;;2.40;82.60;;;;;;5020309;28;20530;-59
2021/04/15 06:29:58;;;;;;;14.03;7.07;;;2.50;80.40;;;;;;5017349;28;20468;-60
2021/04/15 06:32:51;;;;;;;13.03;7.00;;;2.50;79.80;;;;;;5021633;28;20432;-60
2021/04/15 06:35:24;;;;;;;12.70;6.10;;;2.60;79.90;;;;;;5006582;28;20448;-59
2021/04/15 06:38:29;;;;;;;13.53;6.40;;;2.60;78.00;;;;;;5026153;28;20440;-59
2021/04/15 06:41:29;;;;;;;9.50;6.20;;;2.70;78.50;;;;;;5016522;28;20492;-61
2021/04/15 06:44:20;;;;;;;11.23;5.60;;;2.90;77.70;;;;;;5020637;28;20420;-62
2021/04/15 06:47:17;;;;;;;9.17;5.13;;;3.00;75.90;;;;;;5013479;28;20440;-58
2021/04/15 06:49:52;;;;;;;14.40;5.10;;;3.00;73.10;;;;;;5028123;28;20465;-59
2021/04/15 06:52:34;;;;;;;9.50;4.87;;;2.90;72.10;;;;;;5005906;28;20997;-61
2021/04/15 06:55:06;;;;;;;10.73;4.90;;;2.90;72.50;;;;;;5007224;28;20440;-60
2021/04/15 06:58:10;;;;;;;10.40;4.90;;;2.80;74.10;;;;;;5004644;28;20450;-58
2021/04/15 07:01:02;;;;;;;9.30;5.13;;;2.80;74.00;;;;;;4999764;28;20456;-59
2021/04/15 07:03:30;;;;;;;6.30;5.00;;;2.70;76.40;;;;;;5021860;28;20432;-59
2021/04/15 07:06:07;;;;;;;7.07;4.90;;;2.70;75.50;;;;;;5014724;28;20436;-59
2021/04/15 07:08:48;;;;;;;8.20;4.90;;;2.70;76.60;;;;;;5013534;28;20492;-60
2021/04/15 07:11:45;;;;;;;11.20;4.60;;;2.70;77.00;;;;;;5022211;28;20905;-60
2021/04/15 07:14:28;;;;;;;8.47;4.93;;;2.80;76.60;;;;;;5025238;28;20452;-60
2021/04/15 07:17:15;;;;;;;5.83;4.60;;;2.80;74.40;;;;;;5022616;28;20436;-60
2021/04/15 07:20:15;;;;;;;5.10;3.93;;;2.90;72.80;;;;;;5017737;28;20618;-60
2021/04/15 07:23:09;;;;;;;4.00;3.60;;;3.10;73.20;;;;;;4984155;28;20467;-59
2021/04/15 07:26:12;;;;;;;7.10;4.00;;;3.20;72.00;;;;;;5026408;28;20424;-60
2021/04/15 07:29:05;;;;;;;6.47;4.50;;;3.40;69.30;;;;;;5022698;28;20500;-59
2021/04/15 07:32:04;;;;;;;5.20;3.70;;;3.70;67.80;;;;;;5021826;28;20457;-60
2021/04/15 07:34:45;;;;;;;5.43;3.40;;;4.00;64.20;;;;;;5017514;28;20456;-59
2021/04/15 07:37:25;;;;;;;5.70;4.07;;;4.30;58.80;;;;;;5024390;28;20431;-59
2021/04/15 07:40:27;;;;;;;8.10;3.50;;;4.60;54.80;;;;;;5023865;28;20468;-59
2021/04/15 07:43:14;;;;;;;5.63;3.33;;;4.80;53.50;;;;;;5025553;28;20512;-61
2021/04/15 07:45:53;;;;;;;4.80;3.73;;;5.00;53.20;;;;;;5043094;28;20432;-61
2021/04/15 07:48:45;;;;;;;8.40;4.30;;;5.20;52.10;;;;;;5030535;28;20422;-60
2021/04/15 07:51:44;;;;;;;7.70;3.67;;;5.30;51.00;;;;;;5023444;28;20445;-60
2021/04/15 07:54:24;;;;;;;9.97;4.43;;;5.40;50.00;;;;;;5015842;28;20438;-60
2021/04/15 07:56:58;;;;;;;5.80;4.27;;;5.40;49.40;;;;;;5040538;28;20560;-59
2021/04/15 07:59:45;;;;;;;7.90;3.80;;;5.30;48.80;;;;;;5023405;28;20557;-60
2021/04/15 08:02:38;;;;;;;8.80;4.20;;;5.10;47.90;;;;;;5028818;28;21053;-60
2021/04/15 08:05:26;;;;;;;5.67;4.13;;;4.90;47.80;;;;;;5027936;28;20426;-60
2021/04/15 08:08:37;;;;;;;6.37;3.80;;;4.90;48.10;;;;;;5028005;28;22420;-60
2021/04/15 08:11:33;;;;;;;6.53;3.20;;;5.00;47.90;;;;;;5022739;28;20479;-59
2021/04/15 08:14:26;;;;;;;3.90;2.90;;;5.00;46.30;;;;;;5027913;28;20468;-60
2021/04/15 08:17:16;;;;;;;6.30;3.20;;;5.00;45.20;;;;;;5030269;28;20427;-59
2021/04/15 08:20:01;;;;;;;4.33;3.20;;;5.20;46.00;;;;;;5035526;28;21163;-60
2021/04/15 08:23:12;;;;;;;3.00;2.70;;;5.40;45.70;;;;;;5024402;28;20901;-59
2021/04/15 08:26:09;;;;;;;3.93;2.77;;;5.40;43.80;;;;;;5028071;28;20517;-59
2021/04/15 08:28:40;;;;;;;5.70;3.27;;;5.40;42.70;;;;;;5024816;28;20421;-60
2021/04/15 08:31:53;;;;;;;3.40;3.10;;;5.50;42.60;;;;;;5028549;28;20984;-59
2021/04/15 08:34:39;;;;;;;6.23;3.97;;;5.40;42.60;;;;;;5000634;28;20426;-59
2021/04/15 08:37:27;;;;;;;4.73;2.80;;;5.40;42.90;;;;;;5021119;28;20514;-60
2021/04/15 08:40:06;;;;;;;5.07;3.63;;;5.20;43.40;;;;;;5024291;28;20817;-60
2021/04/15 08:42:59;;;;;;;4.67;3.50;;;5.10;44.00;;;;;;5028179;28;20426;-59
2021/04/15 08:45:32;;;;;;;6.63;3.00;;;5.10;44.60;;;;;;5023938;28;20439;-60
2021/04/15 08:48:13;;;;;;;6.27;3.53;;;5.00;44.50;;;;;;5025492;28;20430;-59
2021/04/15 08:50:46;;;;;;;8.40;3.90;;;5.00;44.50;;;;;;5023887;28;20447;-59
2021/04/15 08:53:41;;;;;;;6.83;3.30;;;4.90;44.30;;;;;;5025615;28;20434;-59
2021/04/15 08:56:15;;;;;;;5.27;3.60;;;4.80;44.80;;;;;;5024741;28;20431;-59
2021/04/15 08:59:15;;;;;;;4.70;3.30;;;4.70;44.90;;;;;;5028322;28;20430;-60
2021/04/15 09:01:53;;;;;;;5.00;2.97;;;4.60;45.40;;;;;;5025207;28;20442;-60
2021/04/15 09:04:25;;;;;;;5.73;3.47;;;4.50;45.50;;;;;;5024038;28;20427;-60
2021/04/15 09:07:09;;;;;;;7.53;3.80;;;4.40;46.60;;;;;;5035666;28;20841;-60
2021/04/15 09:10:09;;;;;;;4.53;3.57;;;4.20;48.80;;;;;;5024097;28;20544;-60
2021/04/15 09:13:03;;;;;;;4.10;3.23;;;4.00;51.00;;;;;;5025368;28;20983;-60
2021/04/15 09:15:53;;;;;;;7.10;3.23;;;3.70;52.70;;;;;;5039844;28;20435;-61
2021/04/15 09:18:33;;;;;;;3.13;2.90;;;3.50;53.80;;;;;;5042781;28;20430;-62
2021/04/15 09:21:54;;;;;;;5.30;3.43;;;3.40;55.60;;;;;;5049206;28;20450;-61
2021/04/15 09:24:25;;;;;;;7.40;3.57;;;3.40;58.10;;;;;;5021775;28;20448;-61
2021/04/15 09:27:29;;;;;;;7.67;4.47;;;3.30;59.80;;;;;;5052631;28;20430;-62
2021/04/15 09:30:21;;;;;;;5.90;3.50;;;3.30;61.50;;;;;;5036861;28;20457;-61
2021/04/15 09:33:14;;;;;;;4.53;3.80;;;3.40;59.30;;;;;;5026909;28;20422;-61
2021/04/15 09:35:58;;;;;;;4.70;3.60;;;3.40;58.60;;;;;;5023380;28;20437;-61
2021/04/15 09:38:54;;;;;;;7.70;4.37;;;3.40;58.30;;;;;;5030693;28;20418;-60
2021/04/15 09:41:40;;;;;;;4.20;3.80;;;3.50;61.10;;;;;;5028644;28;20453;-60
2021/04/15 09:44:13;;;;;;;3.70;3.40;;;3.70;63.20;;;;;;5038052;28;20518;-62
2021/04/15 09:46:57;;;;;;;7.37;4.10;;;3.80;62.00;;;;;;5024380;28;20487;-62
2021/04/15 09:49:35;;;;;;;4.83;3.90;;;3.90;62.10;;;;;;5022538;28;20451;-61
2021/04/15 09:52:18;;;;;;;5.93;3.90;;;4.00;62.80;;;;;;5019992;28;22201;-59
2021/04/15 09:55:03;;;;;;;7.23;3.57;;;4.10;59.80;;;;;;5025558;28;20434;-60
2021/04/15 09:57:51;;;;;;;4.33;3.80;;;4.20;58.60;;;;;;5027220;28;20445;-61
2021/04/15 10:00:48;;;;;;;4.93;3.40;;;4.30;58.80;;;;;;5018595;28;20804;-60
2021/04/15 10:03:21;;;;;;;4.70;3.30;;;4.40;57.70;;;;;;5024831;28;20419;-60
2021/04/15 10:05:49;;;;;;;5.00;3.33;;;4.40;53.60;;;;;;5027065;28;20413;-59
2021/04/15 10:08:30;;;;;;;4.27;3.00;;;4.40;54.30;;;;;;5024896;28;20488;-61
2021/04/15 10:11:14;;;;;;;3.50;3.20;;;4.40;55.50;;;;;;5021059;28;20487;-59
2021/04/15 10:13:55;;;;;;;8.60;3.60;;;4.40;56.00;;;;;;5022599;28;20578;-59
2021/04/15 10:16:30;;;;;;;4.10;3.27;;;4.60;57.00;;;;;;5019480;28;20439;-60
2021/04/15 10:19:37;;;;;;;5.67;3.70;;;4.80;56.30;;;;;;5009707;28;21811;-60
2021/04/15 10:22:29;;;;;;;5.60;3.37;;;5.10;56.10;;;;;;5020444;28;20838;-60
2021/04/15 10:25:05;;;;;;;5.20;4.10;;;5.40;55.40;;;;;;5021581;28;20480;-59
2021/04/15 10:27:30;;;;;;;3.67;3.37;;;5.60;55.50;;;;;;5022325;28;20440;-59
2021/04/15 10:30:19;;;;;;;4.67;4.20;;;5.80;54.60;;;;;;5021380;28;21164;-60
2021/04/15 10:33:00;;;;;;;7.03;4.13;;;5.70;56.10;;;;;;5021707;28;20179;-60
2021/04/15 10:35:36;;;;;;;5.90;4.30;;;5.50;58.30;;;;;;5024089;28;20419;-59
2021/04/15 10:38:26;;;;;;;9.73;3.90;;;5.40;59.20;;;;;;5025416;28;20441;-60
2021/04/15 10:41:00;;;;;;;8.30;4.90;;;5.40;61.30;;;;;;5019521;28;20462;-59
2021/04/15 10:43:26;;;;;;;5.70;5.03;;;5.40;62.10;;;;;;5020918;28;20525;-59
2021/04/15 10:46:00;;;;;;;8.97;4.40;;;5.60;59.10;;;;;;5019508;28;20910;-60
2021/04/15 10:48:35;;;;;;;7.23;4.60;;;5.60;59.10;;;;;;5021268;28;20207;-59
2021/04/15 10:51:23;;;;;;;6.00;4.60;;;5.80;57.80;;;;;;5017462;28;20485;-59
2021/04/15 10:53:56;;;;;;;8.90;5.67;;;5.80;56.60;;;;;;5019741;28;20434;-59
2021/04/15 10:56:25;;;;;;;9.90;5.60;;;5.80;56.20;;;;;;5025093;28;20793;-59
2021/04/15 10:58:54;;;;;;;7.87;5.20;;;5.70;56.60;;;;;;5017023;28;20474;-60
2021/04/15 11:01:42;;;;;;;18.13;4.70;;;5.60;56.30;;;;;;5026009;28;20548;-58
2021/04/15 11:04:27;;;;;;;4.80;4.23;;;5.60;59.30;;;;;;5024359;28;20845;-59
2021/04/15 11:07:04;;;;;;;6.63;4.40;;;5.60;61.30;;;;;;5023307;28;20434;-62
2021/04/15 11:09:33;;;;;;;10.97;5.10;;;5.70;58.40;;;;;;5021660;28;20549;-60
2021/04/15 11:12:13;;;;;;;7.90;4.47;;;5.70;55.20;;;;;;5027585;28;20465;-61
2021/04/15 11:14:45;;;;;;;4.73;4.17;;;5.70;54.30;;;;;;5020818;28;21915;-61
2021/04/15 11:17:35;;;;;;;11.57;5.37;;;5.80;52.90;;;;;;5026579;28;20485;-60
2021/04/15 11:20:19;;;;;;;6.90;4.03;;;5.90;52.40;;;;;;5020692;28;20478;-60
2021/04/15 11:23:27;;;;;;;7.20;3.70;;;6.00;49.40;;;;;;5013723;28;20521;-60
2021/04/15 11:26:08;;;;;;;6.20;4.47;;;6.00;49.50;;;;;;5023192;28;20441;-59
2021/04/15 11:28:36;;;;;;;3.87;3.10;;;6.10;47.40;;;;;;5022869;28;20797;-60
2021/04/15 11:31:11;;;;;;;4.63;4.13;;;6.10;45.90;;;;;;5020327;28;20470;-60
2021/04/15 11:33:45;;;;;;;6.23;4.03;;;6.10;46.70;;;;;;5024078;28;20947;-60
2021/04/15 11:36:18;;;;;;;5.30;3.40;;;6.20;46.70;;;;;;5019841;28;20457;-62
2021/04/15 11:38:46;;;;;;;5.10;3.60;;;6.30;45.70;;;;;;5033031;28;20972;-60
2021/04/15 11:41:16;;;;;;;4.00;3.50;;;6.40;45.40;;;;;;5020286;28;20466;-59
2021/04/15 11:43:43;;;;;;;5.10;3.40;;;6.80;45.40;;;;;;5023368;28;20430;-60
2021/04/15 11:46:20;;;;;;;7.03;3.23;;;7.40;43.80;;;;;;5023339;28;20802;-61
2021/04/15 11:49:04;;;;;;;5.47;3.50;;;7.90;43.70;;;;;;5019422;28;20458;-59
2021/04/15 11:51:38;;;;;;;5.20;3.53;;;8.60;43.20;;;;;;5038332;28;20446;-60
2021/04/15 11:54:08;;;;;;;4.83;2.87;;;9.10;41.40;;;;;;5024412;28;20419;-60
2021/04/15 11:56:35;;;;;;;5.20;3.70;;;9.40;40.50;;;;;;5021971;28;20434;-61
2021/04/15 11:59:23;;;;;;;4.97;3.60;;;9.60;39.00;;;;;;5024693;28;20433;-59
2021/04/15 12:01:51;;;;;;;10.90;3.70;;;9.80;38.90;;;;;;5012614;28;20465;-59
2021/04/15 12:04:23;;;;;;;5.17;4.03;;;9.80;38.70;;;;;;5021840;28;20426;-59
2021/04/15 12:06:53;;;;;;;4.13;3.57;;;9.60;37.00;;;;;;5022214;28;20943;-59
2021/04/15 12:09:22;;;;;;;7.97;5.10;;;9.30;38.40;;;;;;5029911;28;20450;-60
2021/04/15 12:12:07;;;;;;;7.20;5.07;;;8.80;39.20;;;;;;5025995;28;20423;-60
2021/04/15 12:14:35;;;;;;;10.17;5.03;;;8.10;41.00;;;;;;5027299;28;20441;-60
2021/04/15 12:17:28;;;;;;;6.40;4.70;;;7.60;41.90;;;;;;5017954;28;20426;-60
2021/04/15 12:20:08;;;;;;;7.90;4.60;;;7.20;43.30;;;;;;5021828;28;20478;-59
2021/04/15 12:22:59;;;;;;;4.70;3.90;;;6.90;45.40;;;;;;5022859;28;20484;-60
2021/04/15 12:25:31;;;;;;;4.93;3.77;;;6.80;47.10;;;;;;5021774;28;20972;-59
2021/04/15 12:28:26;;;;;;;9.07;4.47;;;6.60;47.30;;;;;;5023561;28;20488;-59
2021/04/15 12:31:00;;;;;;;7.73;5.40;;;6.50;48.60;;;;;;5027585;28;21751;-59
2021/04/15 12:33:41;;;;;;;5.87;3.77;;;6.60;50.70;;;;;;5028255;28;20528;-59
2021/04/15 12:36:29;;;;;;;8.93;4.90;;;7.00;51.40;;;;;;5028273;28;21024;-59
2021/04/15 12:38:59;;;;;;;6.63;4.37;;;7.70;51.60;;;;;;5028531;28;20901;-58
2021/04/15 12:41:27;;;;;;;5.50;4.30;;;8.40;50.50;;;;;;5032138;28;20543;-59
2021/04/15 12:44:09;;;;;;;5.90;3.80;;;8.90;47.20;;;;;;5025324;28;20441;-59
2021/04/15 12:46:36;;;;;;;8.10;4.77;;;9.50;45.00;;;;;;5022774;28;20437;-60
2021/04/15 12:49:08;;;;;;;13.23;4.53;;;10.00;43.40;;;;;;5025661;28;20435;-59
2021/04/15 12:51:37;;;;;;;9.27;5.87;;;10.40;42.70;;;;;;5019995;28;20467;-59
2021/04/15 12:54:16;;;;;;;7.23;4.57;;;10.70;42.20;;;;;;5028511;28;20431;-59
2021/04/15 12:56:54;;;;;;;6.77;3.60;;;11.00;40.90;;;;;;5020931;28;21065;-59
2021/04/15 12:59:32;;;;;;;5.57;4.30;;;11.30;40.20;;;;;;5020763;28;20462;-59
2021/04/15 13:01:58;;;;;;;6.73;3.97;;;11.60;37.90;;;;;;5024439;28;20488;-60
2021/04/15 13:04:23;;;;;;;7.73;4.60;;;11.70;36.70;;;;;;5024929;28;20438;-59
2021/04/15 13:07:10;;;;;;;5.70;4.33;;;11.80;36.80;;;;;;5025406;28;20511;-61
2021/04/15 13:09:45;;;;;;;14.10;4.33;;;11.90;36.00;;;;;;5041795;28;20578;-59
2021/04/15 13:12:20;;;;;;;6.00;3.70;;;12.10;35.50;;;;;;5043815;28;20510;-60
2021/04/15 13:14:52;;;;;;;6.87;4.37;;;12.20;35.70;;;;;;5028072;28;20446;-60
2021/04/15 13:17:36;;;;;;;5.37;3.97;;;12.30;35.90;;;;;;5021586;28;20431;-60
2021/04/15 13:20:20;;;;;;;4.40;4.00;;;12.50;36.10;;;;;;5027937;28;20470;-61
2021/04/15 13:22:54;;;;;;;4.73;3.90;;;12.80;35.00;;;;;;5031499;28;20418;-60
2021/04/15 13:25:29;;;;;;;4.87;3.83;;;13.00;34.80;;;;;;5024052;28;20828;-59
2021/04/15 13:27:58;;;;;;;5.50;3.87;;;13.30;34.80;;;;;;5025371;28;20426;-59
2021/04/15 13:30:29;;;;;;;3.93;3.43;;;13.50;33.80;;;;;;5023142;28;20931;-60
2021/04/15 13:33:17;;;;;;;6.67;4.27;;;13.60;32.60;;;;;;5025775;28;20961;-60
2021/04/15 13:35:55;;;;;;;4.57;3.50;;;13.10;31.00;;;;;;5024702;28;20923;-60
2021/04/15 13:38:44;;;;;;;12.70;4.07;;;12.30;30.40;;;;;;5026729;28;20430;-59
2021/04/15 13:41:25;;;;;;;15.17;5.60;;;11.70;31.10;;;;;;5021274;28;20454;-60
2021/04/15 13:43:55;;;;;;;4.80;4.30;;;11.10;31.30;;;;;;5028866;28;20418;-59
2021/04/15 13:49:14;;;;;;;5.60;3.80;;;10.50;30.20;;;;;;5030773;28;20934;-59
2021/04/15 13:51:48;;;;;;;5.83;3.43;;;10.00;30.30;;;;;;5021508;28;20430;-60
2021/04/15 13:54:17;;;;;;;4.97;3.83;;;9.60;31.70;;;;;;5028501;28;20431;-60
2021/04/15 13:56:57;;;;;;;7.80;4.87;;;9.30;32.00;;;;;;5028072;28;20442;-60